キングストン の空港の天気 - METARとTAF

ノーマン・マンレー国際空港 ( MKJP / KIN ) - ジャマイカ キングストン
飛行場実況気象(Metar)
観測時間09/22 12:00 EST (09/22 17:00 UTC)
風向・風速南西 4m/s
視程10km以上
天気現象
少しの雲 雲底高度 670m
気温32℃
湿度63%
気圧1011hPa
METARMKJP 221700Z 23008KT 9999 FEW022TCU 32/24 Q1011
過去の天気等 Google飛行場航空写真 Wunderground天気予報

過去48時間のMETAR

飛行場予報(TAF)
発表時間: 9/22 06:15 EST (9/22 11:15 UTC)
予報対象時間: 22日7時 EST ~ 23日7時 EST
風向・風速北北西 2m/s
視程10km以上
少しの雲 雲底高度 670m
22日10時 EST ~ 22日12時 EST に徐々に
風向・風速南 5m/s
22日13時 EST ~ 22日19時 EST に 確率 30% で一時的に
天気現象
全天の8割程度の雲 雲底高度 610m
少しの積乱雲 雲底高度 670m
22日18時 EST ~ 22日20時 EST に徐々に
風向・風速北 2m/s
TAF MKJP 221115Z 2212/2312 34003KT 9999 FEW022
BECMG 2215/2217 18010KT
PROB30 TEMPO 2218/2224 TS BKN020 FEW022CB
BECMG 2223/2301 35003KT